This is the latest recevied weather packets stored in our database for station/object N1HRK. If no packets are shown the sender has not sent any weather packets the latest 1 day(s).
| Time | Temp. | Humidity | Pressure | Rain* | Wind** | Luminosity | Snow |
|---|---|---|---|---|---|---|---|
| 1778003523 | 18.33° C | 60% | 1010.3 hPa | 0 mm | 2.24 m/s, 222° | - | - |
| 1778002923 | 18.89° C | 59% | 1010.4 hPa | 0 mm | 2.24 m/s, 287° | - | - |
| 1778002323 | 18.89° C | 60% | 1010.5 hPa | 0 mm | 1.79 m/s, 269° | - | - |
| 1778001723 | 18.89° C | 61% | 1010.5 hPa | 0 mm | 2.24 m/s, 228° | - | - |
| 1778001123 | 18.89° C | 61% | 1010.6 hPa | 0 mm | 1.34 m/s, 252° | - | - |
| 1778000522 | 17.78° C | 60% | 1010.5 hPa | 0 mm | 3.58 m/s, 257° | - | - |
| 1777999954 | 18.33° C | 58% | 1010.6 hPa | 0 mm | 2.68 m/s, 240° | - | - |
| 1777999923 | 19.44° C | 57% | 1010.6 hPa | 0 mm | 2.68 m/s, 208° | - | - |
| 1777999324 | 18.89° C | 60% | 1010.7 hPa | 0 mm | 2.24 m/s, 219° | - | - |
| 1777998753 | 18.89° C | 62% | 1011 hPa | 0 mm | 1.79 m/s, 236° | - | - |
| 1777998723 | 18.33° C | 62% | 1011.1 hPa | 0 mm | 3.13 m/s, 236° | - | - |
| 1777998154 | 18.89° C | 60% | 1011.1 hPa | 0 mm | 1.34 m/s, 167° | - | - |
| 1777998123 | 18.33° C | 61% | 1011.1 hPa | 0 mm | 1.79 m/s, 257° | - | - |
| 1777997552 | 17.78° C | 62% | 1011.2 hPa | 0 mm | 2.24 m/s, 262° | - | - |
| 1777997522 | 17.78° C | 63% | 1011.2 hPa | 0 mm | 0.89 m/s, 284° | - | - |
| 1777996953 | 17.78° C | 65% | 1011.3 hPa | 0 mm | 1.79 m/s, 200° | - | - |
| 1777996923 | 17.78° C | 64% | 1011.3 hPa | 0 mm | 3.13 m/s, 266° | - | - |
| 1777996324 | 17.78° C | 65% | 1011.4 hPa | 0 mm | 2.24 m/s, 225° | - | - |
| 1777995752 | 17.78° C | 67% | 1011.4 hPa | 0 mm | 2.24 m/s, 277° | - | - |
| 1777995722 | 17.22° C | 67% | 1011.4 hPa | 0 mm | 1.79 m/s, 235° | - | - |
| 1777995123 | 16.67° C | 66% | 1011.3 hPa | 0 mm | 3.13 m/s, 222° | - | - |
| 1777994553 | 16.67° C | 66% | 1011.3 hPa | 0 mm | 2.68 m/s, 217° | - | - |
| 1777994523 | 17.22° C | 67% | 1011.4 hPa | 0 mm | 2.24 m/s, 235° | - | - |
| 1777993924 | 17.22° C | 66% | 1011.3 hPa | 0 mm | 1.79 m/s, 267° | - | - |
| 1777993352 | 17.78° C | 64% | 1011.2 hPa | 0 mm | 3.13 m/s, 214° | - | - |
* Rain latest hour (hover to see other rain measurements)
** Current wind speed in m/s (hover to see current wind gust speed)